sensor_id;sensor_type;location;lat;lon;timestamp;P1;durP1;ratioP1;P2;durP2;ratioP2
73107;SDS011;61559;50.476;15.588;2023-11-21T00:03:42;9.20;;;3.80;;
73107;SDS011;61559;50.476;15.588;2023-11-21T00:06:13;11.40;;;4.80;;
73107;SDS011;61559;50.476;15.588;2023-11-21T00:08:44;14.70;;;4.70;;
73107;SDS011;61559;50.476;15.588;2023-11-21T00:11:16;17.40;;;7.60;;
73107;SDS011;61559;50.476;15.588;2023-11-21T00:16:18;53.80;;;14.70;;
73107;SDS011;61559;50.476;15.588;2023-11-21T00:18:50;31.00;;;10.30;;
73107;SDS011;61559;50.476;15.588;2023-11-21T00:21:22;14.70;;;6.10;;
73107;SDS011;61559;50.476;15.588;2023-11-21T00:26:22;22.40;;;7.70;;
73107;SDS011;61559;50.476;15.588;2023-11-21T00:28:53;20.60;;;6.00;;
73107;SDS011;61559;50.476;15.588;2023-11-21T00:31:24;22.80;;;7.10;;
73107;SDS011;61559;50.476;15.588;2023-11-21T00:33:56;9.40;;;4.00;;
73107;SDS011;61559;50.476;15.588;2023-11-21T00:36:27;9.80;;;6.50;;
73107;SDS011;61559;50.476;15.588;2023-11-21T00:38:58;8.50;;;3.60;;
73107;SDS011;61559;50.476;15.588;2023-11-21T00:41:30;8.30;;;2.90;;
73107;SDS011;61559;50.476;15.588;2023-11-21T00:44:01;4.80;;;2.90;;
73107;SDS011;61559;50.476;15.588;2023-11-21T00:46:32;18.90;;;5.20;;
73107;SDS011;61559;50.476;15.588;2023-11-21T00:49:04;24.30;;;7.40;;
73107;SDS011;61559;50.476;15.588;2023-11-21T00:51:36;6.70;;;3.60;;
73107;SDS011;61559;50.476;15.588;2023-11-21T00:54:08;9.70;;;3.80;;
73107;SDS011;61559;50.476;15.588;2023-11-21T00:56:39;6.10;;;3.50;;
73107;SDS011;61559;50.476;15.588;2023-11-21T00:59:10;6.70;;;3.00;;
73107;SDS011;61559;50.476;15.588;2023-11-21T01:01:41;12.00;;;4.00;;
73107;SDS011;61559;50.476;15.588;2023-11-21T01:04:13;25.70;;;8.90;;
73107;SDS011;61559;50.476;15.588;2023-11-21T01:06:44;18.40;;;6.40;;
73107;SDS011;61559;50.476;15.588;2023-11-21T01:09:16;19.00;;;6.50;;
73107;SDS011;61559;50.476;15.588;2023-11-21T01:14:16;30.50;;;8.50;;
73107;SDS011;61559;50.476;15.588;2023-11-21T01:16:48;17.80;;;7.10;;
73107;SDS011;61559;50.476;15.588;2023-11-21T01:19:19;11.10;;;4.60;;
73107;SDS011;61559;50.476;15.588;2023-11-21T01:21:50;10.80;;;4.40;;
73107;SDS011;61559;50.476;15.588;2023-11-21T01:24:22;5.60;;;3.80;;
73107;SDS011;61559;50.476;15.588;2023-11-21T01:29:22;5.40;;;2.70;;
73107;SDS011;61559;50.476;15.588;2023-11-21T01:34:23;4.60;;;2.40;;
73107;SDS011;61559;50.476;15.588;2023-11-21T01:36:54;6.40;;;3.10;;
73107;SDS011;61559;50.476;15.588;2023-11-21T01:39:26;7.80;;;3.30;;
73107;SDS011;61559;50.476;15.588;2023-11-21T01:41:57;6.70;;;2.90;;
73107;SDS011;61559;50.476;15.588;2023-11-21T01:44:29;5.80;;;3.20;;
73107;SDS011;61559;50.476;15.588;2023-11-21T01:47:03;8.50;;;3.80;;
73107;SDS011;61559;50.476;15.588;2023-11-21T01:49:35;7.10;;;3.80;;
73107;SDS011;61559;50.476;15.588;2023-11-21T01:52:07;6.30;;;3.90;;
73107;SDS011;61559;50.476;15.588;2023-11-21T01:54:39;8.90;;;3.80;;
73107;SDS011;61559;50.476;15.588;2023-11-21T01:57:12;5.70;;;3.80;;
73107;SDS011;61559;50.476;15.588;2023-11-21T01:59:44;6.80;;;3.40;;
73107;SDS011;61559;50.476;15.588;2023-11-21T02:02:18;5.30;;;3.20;;
73107;SDS011;61559;50.476;15.588;2023-11-21T02:04:49;6.00;;;3.20;;
73107;SDS011;61559;50.476;15.588;2023-11-21T02:07:21;6.20;;;3.60;;
73107;SDS011;61559;50.476;15.588;2023-11-21T02:12:22;7.60;;;3.80;;
73107;SDS011;61559;50.476;15.588;2023-11-21T02:14:54;18.00;;;6.40;;
73107;SDS011;61559;50.476;15.588;2023-11-21T02:17:26;14.40;;;6.50;;
73107;SDS011;61559;50.476;15.588;2023-11-21T02:19:57;24.70;;;7.40;;
73107;SDS011;61559;50.476;15.588;2023-11-21T02:22:31;15.70;;;6.60;;
73107;SDS011;61559;50.476;15.588;2023-11-21T02:25:05;15.00;;;5.80;;
73107;SDS011;61559;50.476;15.588;2023-11-21T02:27:37;12.60;;;5.90;;
73107;SDS011;61559;50.476;15.588;2023-11-21T02:30:09;17.50;;;7.10;;
73107;SDS011;61559;50.476;15.588;2023-11-21T02:32:42;15.90;;;6.40;;
73107;SDS011;61559;50.476;15.588;2023-11-21T02:35:16;12.70;;;6.10;;
73107;SDS011;61559;50.476;15.588;2023-11-21T02:37:49;16.50;;;5.30;;
73107;SDS011;61559;50.476;15.588;2023-11-21T02:42:52;7.00;;;3.40;;
73107;SDS011;61559;50.476;15.588;2023-11-21T02:45:27;6.90;;;3.40;;
73107;SDS011;61559;50.476;15.588;2023-11-21T02:47:59;10.00;;;4.20;;
73107;SDS011;61559;50.476;15.588;2023-11-21T02:50:30;7.50;;;4.40;;
73107;SDS011;61559;50.476;15.588;2023-11-21T02:53:03;7.70;;;4.40;;
73107;SDS011;61559;50.476;15.588;2023-11-21T02:55:35;8.30;;;4.10;;
73107;SDS011;61559;50.476;15.588;2023-11-21T02:58:06;9.00;;;4.20;;
73107;SDS011;61559;50.476;15.588;2023-11-21T03:03:08;9.40;;;4.10;;
73107;SDS011;61559;50.476;15.588;2023-11-21T03:05:40;13.30;;;4.80;;
73107;SDS011;61559;50.476;15.588;2023-11-21T03:08:11;12.80;;;5.80;;
73107;SDS011;61559;50.476;15.588;2023-11-21T03:10:42;14.40;;;5.30;;
73107;SDS011;61559;50.476;15.588;2023-11-21T03:13:14;7.40;;;4.30;;
73107;SDS011;61559;50.476;15.588;2023-11-21T03:15:45;11.90;;;4.90;;
73107;SDS011;61559;50.476;15.588;2023-11-21T03:18:17;13.60;;;5.00;;
73107;SDS011;61559;50.476;15.588;2023-11-21T03:20:51;12.30;;;5.80;;
73107;SDS011;61559;50.476;15.588;2023-11-21T03:23:23;13.80;;;5.60;;
73107;SDS011;61559;50.476;15.588;2023-11-21T03:28:23;12.90;;;5.80;;
73107;SDS011;61559;50.476;15.588;2023-11-21T03:30:54;10.40;;;4.40;;
73107;SDS011;61559;50.476;15.588;2023-11-21T03:33:26;10.80;;;4.60;;
73107;SDS011;61559;50.476;15.588;2023-11-21T03:38:27;10.00;;;5.00;;
73107;SDS011;61559;50.476;15.588;2023-11-21T03:40:58;6.90;;;3.40;;
73107;SDS011;61559;50.476;15.588;2023-11-21T03:43:30;5.90;;;3.20;;
73107;SDS011;61559;50.476;15.588;2023-11-21T03:46:01;8.60;;;4.00;;
73107;SDS011;61559;50.476;15.588;2023-11-21T03:48:32;10.20;;;4.10;;
73107;SDS011;61559;50.476;15.588;2023-11-21T03:51:04;8.90;;;3.80;;
73107;SDS011;61559;50.476;15.588;2023-11-21T03:53:35;21.10;;;8.50;;
73107;SDS011;61559;50.476;15.588;2023-11-21T03:56:07;12.50;;;5.70;;
73107;SDS011;61559;50.476;15.588;2023-11-21T03:58:39;11.90;;;4.40;;
73107;SDS011;61559;50.476;15.588;2023-11-21T04:01:10;8.10;;;4.30;;
73107;SDS011;61559;50.476;15.588;2023-11-21T04:06:11;13.90;;;4.60;;
73107;SDS011;61559;50.476;15.588;2023-11-21T04:08:42;19.00;;;8.30;;
73107;SDS011;61559;50.476;15.588;2023-11-21T04:11:14;30.70;;;9.80;;
73107;SDS011;61559;50.476;15.588;2023-11-21T04:16:15;18.60;;;7.80;;
73107;SDS011;61559;50.476;15.588;2023-11-21T04:18:46;14.30;;;5.80;;
73107;SDS011;61559;50.476;15.588;2023-11-21T04:23:47;11.60;;;5.10;;
73107;SDS011;61559;50.476;15.588;2023-11-21T04:26:19;11.60;;;5.10;;
73107;SDS011;61559;50.476;15.588;2023-11-21T04:31:19;7.80;;;4.10;;
73107;SDS011;61559;50.476;15.588;2023-11-21T04:33:51;10.70;;;4.70;;
73107;SDS011;61559;50.476;15.588;2023-11-21T04:36:23;11.00;;;4.70;;
73107;SDS011;61559;50.476;15.588;2023-11-21T04:41:23;7.70;;;4.20;;
73107;SDS011;61559;50.476;15.588;2023-11-21T04:43:54;9.70;;;4.20;;
73107;SDS011;61559;50.476;15.588;2023-11-21T04:46:26;6.60;;;4.30;;
73107;SDS011;61559;50.476;15.588;2023-11-21T04:48:58;9.30;;;4.10;;
73107;SDS011;61559;50.476;15.588;2023-11-21T04:51:29;8.90;;;5.00;;
73107;SDS011;61559;50.476;15.588;2023-11-21T04:54:00;8.60;;;4.40;;
73107;SDS011;61559;50.476;15.588;2023-11-21T04:59:01;12.00;;;6.90;;
73107;SDS011;61559;50.476;15.588;2023-11-21T05:01:32;11.20;;;6.20;;
73107;SDS011;61559;50.476;15.588;2023-11-21T05:04:05;12.60;;;6.70;;
73107;SDS011;61559;50.476;15.588;2023-11-21T05:06:37;12.50;;;6.90;;
73107;SDS011;61559;50.476;15.588;2023-11-21T05:09:08;14.90;;;8.40;;
73107;SDS011;61559;50.476;15.588;2023-11-21T05:11:40;16.10;;;8.50;;
73107;SDS011;61559;50.476;15.588;2023-11-21T05:16:42;14.50;;;7.30;;
73107;SDS011;61559;50.476;15.588;2023-11-21T05:19:13;15.50;;;8.20;;
73107;SDS011;61559;50.476;15.588;2023-11-21T05:21:45;17.50;;;7.10;;
73107;SDS011;61559;50.476;15.588;2023-11-21T05:26:45;11.00;;;6.10;;
73107;SDS011;61559;50.476;15.588;2023-11-21T05:29:16;14.00;;;7.00;;
73107;SDS011;61559;50.476;15.588;2023-11-21T05:31:47;14.50;;;7.10;;
73107;SDS011;61559;50.476;15.588;2023-11-21T05:34:22;18.80;;;8.00;;
73107;SDS011;61559;50.476;15.588;2023-11-21T05:36:54;15.60;;;8.00;;
73107;SDS011;61559;50.476;15.588;2023-11-21T05:39:26;13.30;;;6.60;;
73107;SDS011;61559;50.476;15.588;2023-11-21T05:41:57;10.80;;;5.60;;
73107;SDS011;61559;50.476;15.588;2023-11-21T05:44:29;9.90;;;5.50;;
73107;SDS011;61559;50.476;15.588;2023-11-21T05:47:00;11.90;;;6.50;;
73107;SDS011;61559;50.476;15.588;2023-11-21T05:49:32;17.70;;;8.30;;
73107;SDS011;61559;50.476;15.588;2023-11-21T05:52:03;14.60;;;8.20;;
73107;SDS011;61559;50.476;15.588;2023-11-21T05:54:35;12.20;;;7.40;;
73107;SDS011;61559;50.476;15.588;2023-11-21T05:57:06;16.90;;;7.60;;
73107;SDS011;61559;50.476;15.588;2023-11-21T05:59:38;13.40;;;7.40;;
73107;SDS011;61559;50.476;15.588;2023-11-21T06:04:38;11.60;;;6.60;;
73107;SDS011;61559;50.476;15.588;2023-11-21T06:07:10;11.10;;;7.00;;
73107;SDS011;61559;50.476;15.588;2023-11-21T06:09:41;15.50;;;7.80;;
73107;SDS011;61559;50.476;15.588;2023-11-21T06:12:13;15.00;;;8.30;;
73107;SDS011;61559;50.476;15.588;2023-11-21T06:14:45;17.80;;;8.00;;
73107;SDS011;61559;50.476;15.588;2023-11-21T06:17:16;14.50;;;8.50;;
73107;SDS011;61559;50.476;15.588;2023-11-21T06:19:48;16.70;;;9.00;;
73107;SDS011;61559;50.476;15.588;2023-11-21T06:22:21;17.10;;;9.10;;
73107;SDS011;61559;50.476;15.588;2023-11-21T06:24:52;14.10;;;6.90;;
73107;SDS011;61559;50.476;15.588;2023-11-21T06:32:23;14.80;;;7.20;;
73107;SDS011;61559;50.476;15.588;2023-11-21T06:34:54;10.60;;;5.90;;
73107;SDS011;61559;50.476;15.588;2023-11-21T06:37:29;11.50;;;6.40;;
73107;SDS011;61559;50.476;15.588;2023-11-21T06:40:01;11.50;;;6.50;;
73107;SDS011;61559;50.476;15.588;2023-11-21T06:42:33;11.20;;;6.40;;
73107;SDS011;61559;50.476;15.588;2023-11-21T06:45:07;13.80;;;6.30;;
73107;SDS011;61559;50.476;15.588;2023-11-21T06:47:39;11.10;;;5.90;;
73107;SDS011;61559;50.476;15.588;2023-11-21T06:50:12;9.50;;;6.10;;
73107;SDS011;61559;50.476;15.588;2023-11-21T06:52:43;11.10;;;6.30;;
73107;SDS011;61559;50.476;15.588;2023-11-21T06:55:14;12.70;;;7.20;;
73107;SDS011;61559;50.476;15.588;2023-11-21T06:57:46;11.30;;;6.00;;
73107;SDS011;61559;50.476;15.588;2023-11-21T07:02:47;9.00;;;5.40;;
73107;SDS011;61559;50.476;15.588;2023-11-21T07:05:19;11.10;;;5.60;;
73107;SDS011;61559;50.476;15.588;2023-11-21T07:07:51;9.30;;;5.80;;
73107;SDS011;61559;50.476;15.588;2023-11-21T07:10:23;9.90;;;5.40;;
73107;SDS011;61559;50.476;15.588;2023-11-21T07:12:55;11.20;;;5.40;;
73107;SDS011;61559;50.476;15.588;2023-11-21T07:15:26;15.80;;;8.00;;
73107;SDS011;61559;50.476;15.588;2023-11-21T07:17:58;12.10;;;6.10;;
73107;SDS011;61559;50.476;15.588;2023-11-21T07:20:30;24.00;;;10.10;;
73107;SDS011;61559;50.476;15.588;2023-11-21T07:23:01;43.40;;;18.60;;
73107;SDS011;61559;50.476;15.588;2023-11-21T07:25:33;66.60;;;24.60;;
73107;SDS011;61559;50.476;15.588;2023-11-21T07:30:34;28.60;;;12.90;;
73107;SDS011;61559;50.476;15.588;2023-11-21T07:33:06;36.10;;;16.80;;
73107;SDS011;61559;50.476;15.588;2023-11-21T07:35:37;35.20;;;17.00;;
73107;SDS011;61559;50.476;15.588;2023-11-21T07:40:37;21.30;;;10.70;;
73107;SDS011;61559;50.476;15.588;2023-11-21T07:43:09;19.70;;;9.40;;
73107;SDS011;61559;50.476;15.588;2023-11-21T07:48:14;35.70;;;15.40;;
73107;SDS011;61559;50.476;15.588;2023-11-21T07:50:45;35.10;;;17.40;;
73107;SDS011;61559;50.476;15.588;2023-11-21T07:53:17;22.20;;;11.40;;
73107;SDS011;61559;50.476;15.588;2023-11-21T07:55:48;24.00;;;12.20;;
73107;SDS011;61559;50.476;15.588;2023-11-21T07:58:19;17.10;;;9.20;;
73107;SDS011;61559;50.476;15.588;2023-11-21T08:00:51;35.80;;;14.90;;
73107;SDS011;61559;50.476;15.588;2023-11-21T08:05:52;48.40;;;20.80;;
73107;SDS011;61559;50.476;15.588;2023-11-21T08:08:24;35.00;;;15.90;;
73107;SDS011;61559;50.476;15.588;2023-11-21T08:10:55;31.00;;;14.00;;
73107;SDS011;61559;50.476;15.588;2023-11-21T08:13:27;18.80;;;9.80;;
73107;SDS011;61559;50.476;15.588;2023-11-21T08:15:59;24.00;;;10.90;;
73107;SDS011;61559;50.476;15.588;2023-11-21T08:18:32;17.10;;;8.90;;
73107;SDS011;61559;50.476;15.588;2023-11-21T08:21:04;20.20;;;10.70;;
73107;SDS011;61559;50.476;15.588;2023-11-21T08:23:36;24.10;;;11.90;;
73107;SDS011;61559;50.476;15.588;2023-11-21T08:26:07;19.10;;;10.20;;
73107;SDS011;61559;50.476;15.588;2023-11-21T08:28:38;13.20;;;6.40;;
73107;SDS011;61559;50.476;15.588;2023-11-21T08:31:10;15.00;;;6.60;;
73107;SDS011;61559;50.476;15.588;2023-11-21T08:33:43;11.30;;;6.10;;
73107;SDS011;61559;50.476;15.588;2023-11-21T08:38:43;14.00;;;6.30;;
73107;SDS011;61559;50.476;15.588;2023-11-21T08:43:44;12.00;;;5.10;;
73107;SDS011;61559;50.476;15.588;2023-11-21T08:46:17;8.10;;;3.50;;
73107;SDS011;61559;50.476;15.588;2023-11-21T08:48:49;11.10;;;4.50;;
73107;SDS011;61559;50.476;15.588;2023-11-21T08:51:21;14.70;;;5.50;;
73107;SDS011;61559;50.476;15.588;2023-11-21T08:53:53;11.10;;;4.60;;
73107;SDS011;61559;50.476;15.588;2023-11-21T08:56:27;10.40;;;4.50;;
73107;SDS011;61559;50.476;15.588;2023-11-21T08:58:58;9.10;;;3.20;;
73107;SDS011;61559;50.476;15.588;2023-11-21T09:01:30;7.30;;;3.50;;
73107;SDS011;61559;50.476;15.588;2023-11-21T09:04:02;9.90;;;3.50;;
73107;SDS011;61559;50.476;15.588;2023-11-21T09:06:34;8.30;;;3.50;;
73107;SDS011;61559;50.476;15.588;2023-11-21T09:09:05;10.00;;;4.60;;
73107;SDS011;61559;50.476;15.588;2023-11-21T09:11:38;10.40;;;4.80;;
73107;SDS011;61559;50.476;15.588;2023-11-21T09:14:09;11.10;;;4.40;;
73107;SDS011;61559;50.476;15.588;2023-11-21T09:16:41;8.30;;;3.80;;
73107;SDS011;61559;50.476;15.588;2023-11-21T09:19:12;6.50;;;3.80;;
73107;SDS011;61559;50.476;15.588;2023-11-21T09:21:43;7.90;;;3.90;;
73107;SDS011;61559;50.476;15.588;2023-11-21T09:24:14;10.60;;;4.60;;
73107;SDS011;61559;50.476;15.588;2023-11-21T09:26:45;7.30;;;3.40;;
73107;SDS011;61559;50.476;15.588;2023-11-21T09:31:46;9.20;;;3.60;;
73107;SDS011;61559;50.476;15.588;2023-11-21T09:34:19;13.40;;;4.80;;
73107;SDS011;61559;50.476;15.588;2023-11-21T09:36:50;9.50;;;3.50;;
73107;SDS011;61559;50.476;15.588;2023-11-21T09:39:22;12.40;;;4.30;;
73107;SDS011;61559;50.476;15.588;2023-11-21T09:41:56;11.50;;;4.50;;
73107;SDS011;61559;50.476;15.588;2023-11-21T09:44:35;11.80;;;5.00;;
73107;SDS011;61559;50.476;15.588;2023-11-21T09:47:23;5.90;;;3.10;;
73107;SDS011;61559;50.476;15.588;2023-11-21T09:49:55;8.40;;;4.20;;
73107;SDS011;61559;50.476;15.588;2023-11-21T09:52:31;10.40;;;3.60;;
73107;SDS011;61559;50.476;15.588;2023-11-21T09:55:08;11.70;;;5.40;;
73107;SDS011;61559;50.476;15.588;2023-11-21T09:57:43;7.50;;;3.30;;
73107;SDS011;61559;50.476;15.588;2023-11-21T10:00:16;8.60;;;3.70;;
73107;SDS011;61559;50.476;15.588;2023-11-21T10:02:52;5.20;;;2.70;;
73107;SDS011;61559;50.476;15.588;2023-11-21T10:05:23;8.30;;;3.50;;
73107;SDS011;61559;50.476;15.588;2023-11-21T10:07:57;8.70;;;3.40;;
73107;SDS011;61559;50.476;15.588;2023-11-21T10:10:28;7.30;;;3.20;;
73107;SDS011;61559;50.476;15.588;2023-11-21T10:13:03;8.40;;;3.20;;
73107;SDS011;61559;50.476;15.588;2023-11-21T10:15:36;7.00;;;3.60;;
73107;SDS011;61559;50.476;15.588;2023-11-21T10:18:07;5.60;;;2.70;;
73107;SDS011;61559;50.476;15.588;2023-11-21T10:20:39;8.80;;;3.30;;
73107;SDS011;61559;50.476;15.588;2023-11-21T10:23:12;8.40;;;2.80;;
73107;SDS011;61559;50.476;15.588;2023-11-21T10:25:44;5.80;;;2.20;;
73107;SDS011;61559;50.476;15.588;2023-11-21T10:28:15;6.20;;;2.40;;
73107;SDS011;61559;50.476;15.588;2023-11-21T10:30:47;5.20;;;2.00;;
73107;SDS011;61559;50.476;15.588;2023-11-21T10:33:18;6.60;;;2.50;;
73107;SDS011;61559;50.476;15.588;2023-11-21T10:35:58;6.00;;;1.70;;
73107;SDS011;61559;50.476;15.588;2023-11-21T10:38:30;3.80;;;1.60;;
73107;SDS011;61559;50.476;15.588;2023-11-21T10:41:11;4.00;;;1.90;;
73107;SDS011;61559;50.476;15.588;2023-11-21T10:43:44;5.00;;;1.70;;
73107;SDS011;61559;50.476;15.588;2023-11-21T10:46:15;3.70;;;1.70;;
73107;SDS011;61559;50.476;15.588;2023-11-21T10:48:50;5.00;;;1.50;;
73107;SDS011;61559;50.476;15.588;2023-11-21T10:51:25;2.60;;;1.60;;
73107;SDS011;61559;50.476;15.588;2023-11-21T10:53:56;4.10;;;1.50;;
73107;SDS011;61559;50.476;15.588;2023-11-21T10:56:28;6.80;;;2.20;;
73107;SDS011;61559;50.476;15.588;2023-11-21T10:59:03;4.80;;;1.90;;
73107;SDS011;61559;50.476;15.588;2023-11-21T11:01:34;4.70;;;2.20;;
73107;SDS011;61559;50.476;15.588;2023-11-21T11:04:07;6.90;;;3.10;;
73107;SDS011;61559;50.476;15.588;2023-11-21T11:06:44;5.40;;;2.80;;
73107;SDS011;61559;50.476;15.588;2023-11-21T11:09:19;4.10;;;2.50;;
73107;SDS011;61559;50.476;15.588;2023-11-21T11:11:52;8.50;;;3.50;;
73107;SDS011;61559;50.476;15.588;2023-11-21T11:14:23;5.90;;;2.60;;
73107;SDS011;61559;50.476;15.588;2023-11-21T11:16:55;5.40;;;3.30;;
73107;SDS011;61559;50.476;15.588;2023-11-21T11:19:28;7.50;;;3.10;;
73107;SDS011;61559;50.476;15.588;2023-11-21T11:22:00;8.80;;;3.90;;
73107;SDS011;61559;50.476;15.588;2023-11-21T11:24:49;12.40;;;4.90;;
73107;SDS011;61559;50.476;15.588;2023-11-21T11:27:34;9.30;;;4.40;;
73107;SDS011;61559;50.476;15.588;2023-11-21T11:30:16;7.20;;;4.20;;
73107;SDS011;61559;50.476;15.588;2023-11-21T11:32:58;8.00;;;3.70;;
73107;SDS011;61559;50.476;15.588;2023-11-21T11:35:38;7.30;;;3.60;;
73107;SDS011;61559;50.476;15.588;2023-11-21T11:38:17;6.30;;;3.30;;
73107;SDS011;61559;50.476;15.588;2023-11-21T11:40:52;23.50;;;13.30;;
73107;SDS011;61559;50.476;15.588;2023-11-21T11:43:26;11.20;;;7.40;;
73107;SDS011;61559;50.476;15.588;2023-11-21T11:45:57;6.30;;;2.90;;
73107;SDS011;61559;50.476;15.588;2023-11-21T11:48:33;6.00;;;2.80;;
73107;SDS011;61559;50.476;15.588;2023-11-21T11:51:10;6.70;;;3.00;;
73107;SDS011;61559;50.476;15.588;2023-11-21T11:53:45;4.90;;;2.70;;
73107;SDS011;61559;50.476;15.588;2023-11-21T11:56:21;5.20;;;2.80;;
73107;SDS011;61559;50.476;15.588;2023-11-21T11:58:55;5.90;;;2.90;;
73107;SDS011;61559;50.476;15.588;2023-11-21T12:01:28;5.60;;;2.70;;
73107;SDS011;61559;50.476;15.588;2023-11-21T12:07:03;5.30;;;3.40;;
73107;SDS011;61559;50.476;15.588;2023-11-21T12:09:35;5.60;;;3.60;;
73107;SDS011;61559;50.476;15.588;2023-11-21T12:12:08;6.80;;;3.30;;
73107;SDS011;61559;50.476;15.588;2023-11-21T12:14:40;7.80;;;2.70;;
73107;SDS011;61559;50.476;15.588;2023-11-21T12:17:11;5.20;;;2.80;;
73107;SDS011;61559;50.476;15.588;2023-11-21T12:19:43;4.10;;;2.50;;
73107;SDS011;61559;50.476;15.588;2023-11-21T12:22:14;3.90;;;2.90;;
73107;SDS011;61559;50.476;15.588;2023-11-21T12:24:46;6.20;;;2.90;;
73107;SDS011;61559;50.476;15.588;2023-11-21T12:27:18;7.80;;;2.40;;
73107;SDS011;61559;50.476;15.588;2023-11-21T12:29:49;6.00;;;2.90;;
73107;SDS011;61559;50.476;15.588;2023-11-21T12:32:21;5.50;;;2.70;;
73107;SDS011;61559;50.476;15.588;2023-11-21T12:34:53;4.90;;;2.80;;
73107;SDS011;61559;50.476;15.588;2023-11-21T12:37:25;6.10;;;3.70;;
73107;SDS011;61559;50.476;15.588;2023-11-21T12:39:56;6.90;;;3.50;;
73107;SDS011;61559;50.476;15.588;2023-11-21T12:42:29;7.50;;;3.40;;
73107;SDS011;61559;50.476;15.588;2023-11-21T12:45:10;8.40;;;3.80;;
73107;SDS011;61559;50.476;15.588;2023-11-21T12:47:50;10.60;;;4.40;;
73107;SDS011;61559;50.476;15.588;2023-11-21T12:50:23;9.00;;;4.40;;
73107;SDS011;61559;50.476;15.588;2023-11-21T12:52:59;6.10;;;3.20;;
73107;SDS011;61559;50.476;15.588;2023-11-21T12:55:33;11.30;;;4.00;;
73107;SDS011;61559;50.476;15.588;2023-11-21T12:58:07;9.40;;;4.30;;
73107;SDS011;61559;50.476;15.588;2023-11-21T13:00:42;12.60;;;4.70;;
73107;SDS011;61559;50.476;15.588;2023-11-21T13:03:14;16.90;;;5.60;;
73107;SDS011;61559;50.476;15.588;2023-11-21T13:05:48;10.00;;;3.80;;
73107;SDS011;61559;50.476;15.588;2023-11-21T13:08:23;7.90;;;4.00;;
73107;SDS011;61559;50.476;15.588;2023-11-21T13:10:56;8.70;;;4.30;;
73107;SDS011;61559;50.476;15.588;2023-11-21T13:13:29;9.80;;;3.80;;
73107;SDS011;61559;50.476;15.588;2023-11-21T13:16:00;8.10;;;3.40;;
73107;SDS011;61559;50.476;15.588;2023-11-21T13:18:33;6.80;;;2.90;;
73107;SDS011;61559;50.476;15.588;2023-11-21T13:21:05;8.40;;;3.00;;
73107;SDS011;61559;50.476;15.588;2023-11-21T13:23:41;6.60;;;2.70;;
73107;SDS011;61559;50.476;15.588;2023-11-21T13:26:14;8.60;;;3.10;;
73107;SDS011;61559;50.476;15.588;2023-11-21T13:28:49;3.80;;;2.20;;
73107;SDS011;61559;50.476;15.588;2023-11-21T13:31:20;5.90;;;2.70;;
73107;SDS011;61559;50.476;15.588;2023-11-21T13:33:55;7.10;;;3.10;;
73107;SDS011;61559;50.476;15.588;2023-11-21T13:36:33;3.80;;;2.40;;
73107;SDS011;61559;50.476;15.588;2023-11-21T13:39:04;5.80;;;2.70;;
73107;SDS011;61559;50.476;15.588;2023-11-21T13:41:43;4.60;;;2.90;;
73107;SDS011;61559;50.476;15.588;2023-11-21T13:44:16;4.00;;;2.60;;
73107;SDS011;61559;50.476;15.588;2023-11-21T13:46:55;7.00;;;3.80;;
73107;SDS011;61559;50.476;15.588;2023-11-21T13:49:30;34.80;;;18.40;;
73107;SDS011;61559;50.476;15.588;2023-11-21T13:52:08;10.80;;;5.70;;
73107;SDS011;61559;50.476;15.588;2023-11-21T13:54:43;5.40;;;4.30;;
73107;SDS011;61559;50.476;15.588;2023-11-21T13:57:15;10.40;;;4.40;;
73107;SDS011;61559;50.476;15.588;2023-11-21T13:59:48;7.30;;;4.60;;
73107;SDS011;61559;50.476;15.588;2023-11-21T14:02:20;9.40;;;4.60;;
73107;SDS011;61559;50.476;15.588;2023-11-21T14:05:00;5.90;;;3.80;;
73107;SDS011;61559;50.476;15.588;2023-11-21T14:10:08;6.20;;;2.60;;
73107;SDS011;61559;50.476;15.588;2023-11-21T14:12:42;8.20;;;4.10;;
73107;SDS011;61559;50.476;15.588;2023-11-21T14:15:14;17.90;;;9.90;;
73107;SDS011;61559;50.476;15.588;2023-11-21T14:17:47;12.00;;;7.20;;
73107;SDS011;61559;50.476;15.588;2023-11-21T14:20:18;8.10;;;3.80;;
73107;SDS011;61559;50.476;15.588;2023-11-21T14:22:50;4.90;;;2.60;;
73107;SDS011;61559;50.476;15.588;2023-11-21T14:25:22;36.20;;;14.60;;
73107;SDS011;61559;50.476;15.588;2023-11-21T14:27:55;15.40;;;6.60;;
73107;SDS011;61559;50.476;15.588;2023-11-21T14:30:26;17.90;;;7.50;;
73107;SDS011;61559;50.476;15.588;2023-11-21T14:32:59;8.70;;;4.50;;
73107;SDS011;61559;50.476;15.588;2023-11-21T14:35:31;5.00;;;2.70;;
73107;SDS011;61559;50.476;15.588;2023-11-21T14:38:02;3.80;;;2.10;;
73107;SDS011;61559;50.476;15.588;2023-11-21T14:40:34;12.80;;;6.70;;
73107;SDS011;61559;50.476;15.588;2023-11-21T14:43:06;18.50;;;10.20;;
73107;SDS011;61559;50.476;15.588;2023-11-21T14:45:37;9.50;;;5.60;;
73107;SDS011;61559;50.476;15.588;2023-11-21T14:48:08;5.40;;;3.30;;
73107;SDS011;61559;50.476;15.588;2023-11-21T14:50:44;10.10;;;6.80;;
73107;SDS011;61559;50.476;15.588;2023-11-21T14:53:41;10.20;;;5.50;;
73107;SDS011;61559;50.476;15.588;2023-11-21T14:56:21;7.70;;;4.30;;
73107;SDS011;61559;50.476;15.588;2023-11-21T14:58:58;8.30;;;4.00;;
73107;SDS011;61559;50.476;15.588;2023-11-21T15:01:37;7.80;;;4.40;;
73107;SDS011;61559;50.476;15.588;2023-11-21T15:04:14;12.40;;;6.20;;
73107;SDS011;61559;50.476;15.588;2023-11-21T15:07:00;10.20;;;5.70;;
73107;SDS011;61559;50.476;15.588;2023-11-21T15:09:32;11.50;;;5.70;;
73107;SDS011;61559;50.476;15.588;2023-11-21T15:12:09;16.60;;;8.10;;
73107;SDS011;61559;50.476;15.588;2023-11-21T15:14:45;12.40;;;6.80;;
73107;SDS011;61559;50.476;15.588;2023-11-21T15:17:20;11.40;;;6.20;;
73107;SDS011;61559;50.476;15.588;2023-11-21T15:19:55;18.30;;;8.20;;
73107;SDS011;61559;50.476;15.588;2023-11-21T15:22:29;9.10;;;4.20;;
73107;SDS011;61559;50.476;15.588;2023-11-21T15:27:36;6.10;;;3.50;;
73107;SDS011;61559;50.476;15.588;2023-11-21T15:30:10;8.00;;;4.30;;
73107;SDS011;61559;50.476;15.588;2023-11-21T15:32:41;9.00;;;5.40;;
73107;SDS011;61559;50.476;15.588;2023-11-21T15:35:12;6.90;;;3.60;;
73107;SDS011;61559;50.476;15.588;2023-11-21T15:37:44;25.10;;;11.70;;
73107;SDS011;61559;50.476;15.588;2023-11-21T15:40:15;14.90;;;7.90;;
73107;SDS011;61559;50.476;15.588;2023-11-21T15:42:46;7.70;;;4.80;;
73107;SDS011;61559;50.476;15.588;2023-11-21T15:45:17;5.80;;;3.80;;
73107;SDS011;61559;50.476;15.588;2023-11-21T15:47:51;6.30;;;3.70;;
73107;SDS011;61559;50.476;15.588;2023-11-21T15:50:23;11.10;;;8.30;;
73107;SDS011;61559;50.476;15.588;2023-11-21T15:52:54;7.40;;;4.50;;
73107;SDS011;61559;50.476;15.588;2023-11-21T15:55:25;2.40;;;1.80;;
73107;SDS011;61559;50.476;15.588;2023-11-21T15:57:57;9.10;;;4.30;;
73107;SDS011;61559;50.476;15.588;2023-11-21T16:00:31;3.80;;;2.40;;
73107;SDS011;61559;50.476;15.588;2023-11-21T16:03:03;3.10;;;2.70;;
73107;SDS011;61559;50.476;15.588;2023-11-21T16:05:35;2.30;;;1.50;;
73107;SDS011;61559;50.476;15.588;2023-11-21T16:08:06;63.80;;;21.50;;
73107;SDS011;61559;50.476;15.588;2023-11-21T16:10:37;9.60;;;3.40;;
73107;SDS011;61559;50.476;15.588;2023-11-21T16:13:08;10.50;;;4.60;;
73107;SDS011;61559;50.476;15.588;2023-11-21T16:15:43;3.70;;;1.70;;
73107;SDS011;61559;50.476;15.588;2023-11-21T16:18:16;5.40;;;2.70;;
73107;SDS011;61559;50.476;15.588;2023-11-21T16:23:18;7.80;;;4.10;;